sensor_id;sensor_type;location;lat;lon;timestamp;P1;durP1;ratioP1;P2;durP2;ratioP2
66371;SDS011;53168;51.146;17.120;2024-02-28T00:01:00;55.59;;;45.71;;
66371;SDS011;53168;51.146;17.120;2024-02-28T00:03:48;56.65;;;47.15;;
66371;SDS011;53168;51.146;17.120;2024-02-28T00:06:24;64.25;;;53.70;;
66371;SDS011;53168;51.146;17.120;2024-02-28T00:09:00;62.54;;;52.76;;
66371;SDS011;53168;51.146;17.120;2024-02-28T00:11:37;63.76;;;52.87;;
66371;SDS011;53168;51.146;17.120;2024-02-28T00:14:21;58.73;;;49.59;;
66371;SDS011;53168;51.146;17.120;2024-02-28T00:16:58;63.92;;;53.69;;
66371;SDS011;53168;51.146;17.120;2024-02-28T00:19:35;62.15;;;52.38;;
66371;SDS011;53168;51.146;17.120;2024-02-28T00:22:13;58.84;;;50.86;;
66371;SDS011;53168;51.146;17.120;2024-02-28T00:24:51;58.39;;;49.54;;
66371;SDS011;53168;51.146;17.120;2024-02-28T00:27:30;69.46;;;56.53;;
66371;SDS011;53168;51.146;17.120;2024-02-28T00:30:21;58.74;;;49.01;;
66371;SDS011;53168;51.146;17.120;2024-02-28T00:33:07;60.82;;;51.29;;
66371;SDS011;53168;51.146;17.120;2024-02-28T00:36:18;62.85;;;53.24;;
66371;SDS011;53168;51.146;17.120;2024-02-28T00:39:00;56.92;;;49.71;;
66371;SDS011;53168;51.146;17.120;2024-02-28T00:41:39;51.76;;;44.91;;
66371;SDS011;53168;51.146;17.120;2024-02-28T00:44:28;54.12;;;46.08;;
66371;SDS011;53168;51.146;17.120;2024-02-28T00:47:53;60.39;;;51.21;;
66371;SDS011;53168;51.146;17.120;2024-02-28T00:51:07;53.69;;;47.03;;
66371;SDS011;53168;51.146;17.120;2024-02-28T00:54:37;61.01;;;51.68;;
66371;SDS011;53168;51.146;17.120;2024-02-28T00:57:24;59.33;;;51.07;;
66371;SDS011;53168;51.146;17.120;2024-02-28T01:00:07;60.85;;;50.95;;
66371;SDS011;53168;51.146;17.120;2024-02-28T01:03:48;63.31;;;53.92;;
66371;SDS011;53168;51.146;17.120;2024-02-28T01:07:35;62.79;;;53.67;;
66371;SDS011;53168;51.146;17.120;2024-02-28T01:10:12;63.21;;;53.30;;
66371;SDS011;53168;51.146;17.120;2024-02-28T01:12:51;67.69;;;55.69;;
66371;SDS011;53168;51.146;17.120;2024-02-28T01:15:34;64.06;;;54.21;;
66371;SDS011;53168;51.146;17.120;2024-02-28T01:18:10;65.76;;;55.05;;
66371;SDS011;53168;51.146;17.120;2024-02-28T01:20:46;65.13;;;53.67;;
66371;SDS011;53168;51.146;17.120;2024-02-28T01:23:37;57.67;;;48.48;;
66371;SDS011;53168;51.146;17.120;2024-02-28T01:26:12;66.23;;;54.46;;
66371;SDS011;53168;51.146;17.120;2024-02-28T01:28:50;62.99;;;53.40;;
66371;SDS011;53168;51.146;17.120;2024-02-28T01:31:28;57.22;;;47.83;;
66371;SDS011;53168;51.146;17.120;2024-02-28T01:34:03;60.12;;;49.40;;
66371;SDS011;53168;51.146;17.120;2024-02-28T01:36:39;68.93;;;56.42;;
66371;SDS011;53168;51.146;17.120;2024-02-28T01:39:15;70.99;;;58.98;;
66371;SDS011;53168;51.146;17.120;2024-02-28T01:41:52;72.72;;;60.34;;
66371;SDS011;53168;51.146;17.120;2024-02-28T01:44:53;72.48;;;59.78;;
66371;SDS011;53168;51.146;17.120;2024-02-28T01:47:29;74.00;;;60.50;;
66371;SDS011;53168;51.146;17.120;2024-02-28T01:52:57;75.76;;;61.24;;
66371;SDS011;53168;51.146;17.120;2024-02-28T01:55:35;74.04;;;60.17;;
66371;SDS011;53168;51.146;17.120;2024-02-28T01:58:11;73.92;;;60.09;;
66371;SDS011;53168;51.146;17.120;2024-02-28T02:00:47;68.83;;;56.81;;
66371;SDS011;53168;51.146;17.120;2024-02-28T02:03:24;73.80;;;60.07;;
66371;SDS011;53168;51.146;17.120;2024-02-28T02:06:00;75.04;;;61.85;;
66371;SDS011;53168;51.146;17.120;2024-02-28T02:08:36;78.61;;;64.01;;
66371;SDS011;53168;51.146;17.120;2024-02-28T02:11:14;80.02;;;64.60;;
66371;SDS011;53168;51.146;17.120;2024-02-28T02:13:50;74.35;;;61.41;;
66371;SDS011;53168;51.146;17.120;2024-02-28T02:16:28;76.10;;;62.65;;
66371;SDS011;53168;51.146;17.120;2024-02-28T02:19:03;76.06;;;63.02;;
66371;SDS011;53168;51.146;17.120;2024-02-28T02:21:41;75.28;;;61.18;;
66371;SDS011;53168;51.146;17.120;2024-02-28T02:24:29;78.61;;;63.94;;
66371;SDS011;53168;51.146;17.120;2024-02-28T02:27:05;77.37;;;63.10;;
66371;SDS011;53168;51.146;17.120;2024-02-28T02:29:40;79.68;;;64.13;;
66371;SDS011;53168;51.146;17.120;2024-02-28T02:32:16;62.33;;;51.56;;
66371;SDS011;53168;51.146;17.120;2024-02-28T02:34:51;71.51;;;59.59;;
66371;SDS011;53168;51.146;17.120;2024-02-28T02:37:27;73.39;;;59.64;;
66371;SDS011;53168;51.146;17.120;2024-02-28T02:40:04;79.05;;;63.48;;
66371;SDS011;53168;51.146;17.120;2024-02-28T02:42:42;78.04;;;63.33;;
66371;SDS011;53168;51.146;17.120;2024-02-28T02:45:21;83.90;;;66.90;;
66371;SDS011;53168;51.146;17.120;2024-02-28T02:47:57;81.24;;;66.03;;
66371;SDS011;53168;51.146;17.120;2024-02-28T02:50:33;78.79;;;64.18;;
66371;SDS011;53168;51.146;17.120;2024-02-28T02:53:14;78.72;;;64.06;;
66371;SDS011;53168;51.146;17.120;2024-02-28T02:55:49;76.36;;;63.27;;
66371;SDS011;53168;51.146;17.120;2024-02-28T02:58:25;79.76;;;64.89;;
66371;SDS011;53168;51.146;17.120;2024-02-28T03:01:00;79.40;;;64.47;;
66371;SDS011;53168;51.146;17.120;2024-02-28T03:03:36;76.15;;;62.48;;
66371;SDS011;53168;51.146;17.120;2024-02-28T03:06:13;75.16;;;61.82;;
66371;SDS011;53168;51.146;17.120;2024-02-28T03:08:48;77.12;;;62.97;;
66371;SDS011;53168;51.146;17.120;2024-02-28T03:11:24;76.04;;;62.44;;
66371;SDS011;53168;51.146;17.120;2024-02-28T03:14:00;77.31;;;63.88;;
66371;SDS011;53168;51.146;17.120;2024-02-28T03:16:35;82.04;;;66.41;;
66371;SDS011;53168;51.146;17.120;2024-02-28T03:19:15;78.70;;;64.85;;
66371;SDS011;53168;51.146;17.120;2024-02-28T03:21:50;77.54;;;63.74;;
66371;SDS011;53168;51.146;17.120;2024-02-28T03:26:05;83.81;;;67.11;;
66371;SDS011;53168;51.146;17.120;2024-02-28T03:28:42;81.68;;;65.98;;
66371;SDS011;53168;51.146;17.120;2024-02-28T03:31:17;79.88;;;64.79;;
66371;SDS011;53168;51.146;17.120;2024-02-28T03:33:52;81.50;;;66.44;;
66371;SDS011;53168;51.146;17.120;2024-02-28T03:36:28;78.53;;;64.65;;
66371;SDS011;53168;51.146;17.120;2024-02-28T03:39:04;80.88;;;65.66;;
66371;SDS011;53168;51.146;17.120;2024-02-28T03:41:40;84.26;;;67.27;;
66371;SDS011;53168;51.146;17.120;2024-02-28T03:44:15;81.61;;;65.72;;
66371;SDS011;53168;51.146;17.120;2024-02-28T03:46:55;81.59;;;66.29;;
66371;SDS011;53168;51.146;17.120;2024-02-28T03:49:31;80.03;;;65.38;;
66371;SDS011;53168;51.146;17.120;2024-02-28T03:52:07;78.31;;;65.22;;
66371;SDS011;53168;51.146;17.120;2024-02-28T03:54:43;82.74;;;66.90;;
66371;SDS011;53168;51.146;17.120;2024-02-28T04:09:41;79.93;;;65.58;;
66371;SDS011;53168;51.146;17.120;2024-02-28T04:12:16;78.71;;;64.31;;
66371;SDS011;53168;51.146;17.120;2024-02-28T04:14:51;74.26;;;62.01;;
66371;SDS011;53168;51.146;17.120;2024-02-28T04:17:37;81.92;;;66.74;;
66371;SDS011;53168;51.146;17.120;2024-02-28T04:20:13;85.91;;;68.39;;
66371;SDS011;53168;51.146;17.120;2024-02-28T04:22:48;79.99;;;65.14;;
66371;SDS011;53168;51.146;17.120;2024-02-28T04:25:24;79.34;;;64.40;;
66371;SDS011;53168;51.146;17.120;2024-02-28T04:28:00;82.82;;;66.91;;
66371;SDS011;53168;51.146;17.120;2024-02-28T04:30:36;81.45;;;66.16;;
66371;SDS011;53168;51.146;17.120;2024-02-28T04:33:13;82.59;;;66.75;;
66371;SDS011;53168;51.146;17.120;2024-02-28T04:35:48;82.90;;;66.58;;
66371;SDS011;53168;51.146;17.120;2024-02-28T04:38:23;78.01;;;62.01;;
66371;SDS011;53168;51.146;17.120;2024-02-28T04:41:00;78.40;;;61.88;;
66371;SDS011;53168;51.146;17.120;2024-02-28T04:43:50;78.75;;;62.30;;
66371;SDS011;53168;51.146;17.120;2024-02-28T04:46:25;80.72;;;63.55;;
66371;SDS011;53168;51.146;17.120;2024-02-28T04:49:01;80.44;;;63.48;;
66371;SDS011;53168;51.146;17.120;2024-02-28T04:51:39;69.73;;;55.91;;
66371;SDS011;53168;51.146;17.120;2024-02-28T04:54:15;69.76;;;56.43;;
66371;SDS011;53168;51.146;17.120;2024-02-28T04:56:52;77.09;;;61.23;;
66371;SDS011;53168;51.146;17.120;2024-02-28T04:59:56;83.68;;;64.68;;
66371;SDS011;53168;51.146;17.120;2024-02-28T05:02:31;75.90;;;60.47;;
66371;SDS011;53168;51.146;17.120;2024-02-28T05:05:08;69.81;;;56.06;;
66371;SDS011;53168;51.146;17.120;2024-02-28T05:07:44;70.85;;;55.76;;
66371;SDS011;53168;51.146;17.120;2024-02-28T05:10:39;62.22;;;50.87;;
66371;SDS011;53168;51.146;17.120;2024-02-28T05:13:15;63.99;;;51.42;;
66371;SDS011;53168;51.146;17.120;2024-02-28T05:15:52;66.72;;;52.33;;
66371;SDS011;53168;51.146;17.120;2024-02-28T05:18:28;68.67;;;54.25;;
66371;SDS011;53168;51.146;17.120;2024-02-28T05:21:03;59.64;;;48.43;;
66371;SDS011;53168;51.146;17.120;2024-02-28T05:23:39;67.41;;;54.38;;
66371;SDS011;53168;51.146;17.120;2024-02-28T05:26:17;65.27;;;53.16;;
66371;SDS011;53168;51.146;17.120;2024-02-28T05:28:55;62.25;;;50.83;;
66371;SDS011;53168;51.146;17.120;2024-02-28T05:33:11;57.23;;;46.61;;
66371;SDS011;53168;51.146;17.120;2024-02-28T05:35:43;64.24;;;52.06;;
66371;SDS011;53168;51.146;17.120;2024-02-28T05:38:18;57.42;;;46.75;;
66371;SDS011;53168;51.146;17.120;2024-02-28T05:40:53;60.13;;;48.18;;
66371;SDS011;53168;51.146;17.120;2024-02-28T05:43:27;52.02;;;43.10;;
66371;SDS011;53168;51.146;17.120;2024-02-28T05:45:58;55.90;;;46.84;;
66371;SDS011;53168;51.146;17.120;2024-02-28T05:48:31;52.02;;;43.38;;
66371;SDS011;53168;51.146;17.120;2024-02-28T05:51:02;52.15;;;44.11;;
66371;SDS011;53168;51.146;17.120;2024-02-28T05:53:36;48.79;;;41.67;;
66371;SDS011;53168;51.146;17.120;2024-02-28T06:02:06;51.57;;;44.02;;
66371;SDS011;53168;51.146;17.120;2024-02-28T06:04:41;48.43;;;40.85;;
66371;SDS011;53168;51.146;17.120;2024-02-28T06:07:19;54.58;;;45.28;;
66371;SDS011;53168;51.146;17.120;2024-02-28T06:10:05;49.67;;;42.92;;
66371;SDS011;53168;51.146;17.120;2024-02-28T06:12:39;48.61;;;41.82;;
66371;SDS011;53168;51.146;17.120;2024-02-28T06:15:16;47.27;;;40.29;;
66371;SDS011;53168;51.146;17.120;2024-02-28T06:17:55;50.24;;;42.99;;
66371;SDS011;53168;51.146;17.120;2024-02-28T06:20:31;46.04;;;39.76;;
66371;SDS011;53168;51.146;17.120;2024-02-28T06:23:10;43.01;;;37.75;;
66371;SDS011;53168;51.146;17.120;2024-02-28T06:25:54;44.77;;;39.14;;
66371;SDS011;53168;51.146;17.120;2024-02-28T06:28:26;42.98;;;36.83;;
66371;SDS011;53168;51.146;17.120;2024-02-28T06:30:57;42.92;;;37.83;;
66371;SDS011;53168;51.146;17.120;2024-02-28T06:33:31;42.40;;;37.59;;
66371;SDS011;53168;51.146;17.120;2024-02-28T06:36:02;39.05;;;34.74;;
66371;SDS011;53168;51.146;17.120;2024-02-28T06:38:39;38.14;;;34.71;;
66371;SDS011;53168;51.146;17.120;2024-02-28T06:41:10;36.24;;;32.59;;
66371;SDS011;53168;51.146;17.120;2024-02-28T06:43:40;37.51;;;34.35;;
66371;SDS011;53168;51.146;17.120;2024-02-28T06:46:14;39.29;;;34.79;;
66371;SDS011;53168;51.146;17.120;2024-02-28T07:00:52;32.67;;;30.36;;
66371;SDS011;53168;51.146;17.120;2024-02-28T07:03:26;32.45;;;30.20;;
66371;SDS011;53168;51.146;17.120;2024-02-28T07:05:57;33.58;;;31.38;;
66371;SDS011;53168;51.146;17.120;2024-02-28T07:08:28;30.53;;;28.50;;
66371;SDS011;53168;51.146;17.120;2024-02-28T07:11:00;29.56;;;27.17;;
66371;SDS011;53168;51.146;17.120;2024-02-28T07:13:31;30.37;;;28.40;;
66371;SDS011;53168;51.146;17.120;2024-02-28T07:16:02;31.40;;;29.00;;
66371;SDS011;53168;51.146;17.120;2024-02-28T07:18:34;32.80;;;30.35;;
66371;SDS011;53168;51.146;17.120;2024-02-28T07:21:05;31.81;;;29.64;;
66371;SDS011;53168;51.146;17.120;2024-02-28T07:23:38;28.95;;;27.22;;
66371;SDS011;53168;51.146;17.120;2024-02-28T07:26:13;29.60;;;27.36;;
66371;SDS011;53168;51.146;17.120;2024-02-28T07:28:54;31.35;;;28.97;;
66371;SDS011;53168;51.146;17.120;2024-02-28T07:31:27;31.61;;;29.36;;
66371;SDS011;53168;51.146;17.120;2024-02-28T07:33:57;28.93;;;27.64;;
66371;SDS011;53168;51.146;17.120;2024-02-28T07:36:28;29.57;;;27.65;;
66371;SDS011;53168;51.146;17.120;2024-02-28T07:38:58;28.33;;;26.92;;
66371;SDS011;53168;51.146;17.120;2024-02-28T07:41:29;29.07;;;26.81;;
66371;SDS011;53168;51.146;17.120;2024-02-28T07:44:00;29.03;;;27.15;;
66371;SDS011;53168;51.146;17.120;2024-02-28T07:46:31;25.31;;;24.03;;
66371;SDS011;53168;51.146;17.120;2024-02-28T07:49:02;27.94;;;26.38;;
66371;SDS011;53168;51.146;17.120;2024-02-28T07:51:33;28.23;;;26.53;;
66371;SDS011;53168;51.146;17.120;2024-02-28T07:54:04;26.94;;;25.15;;
66371;SDS011;53168;51.146;17.120;2024-02-28T07:56:35;29.85;;;27.20;;
66371;SDS011;53168;51.146;17.120;2024-02-28T07:59:05;28.27;;;26.22;;
66371;SDS011;53168;51.146;17.120;2024-02-28T08:01:37;28.43;;;26.62;;
66371;SDS011;53168;51.146;17.120;2024-02-28T08:04:08;24.50;;;23.28;;
66371;SDS011;53168;51.146;17.120;2024-02-28T08:06:40;28.33;;;26.48;;
66371;SDS011;53168;51.146;17.120;2024-02-28T08:09:11;27.09;;;25.49;;
66371;SDS011;53168;51.146;17.120;2024-02-28T08:11:44;25.07;;;24.31;;
66371;SDS011;53168;51.146;17.120;2024-02-28T08:14:33;25.73;;;24.56;;
66371;SDS011;53168;51.146;17.120;2024-02-28T08:17:06;23.07;;;21.56;;
66371;SDS011;53168;51.146;17.120;2024-02-28T08:19:37;23.16;;;22.24;;
66371;SDS011;53168;51.146;17.120;2024-02-28T08:22:09;20.38;;;19.73;;
66371;SDS011;53168;51.146;17.120;2024-02-28T08:24:42;21.31;;;20.60;;
66371;SDS011;53168;51.146;17.120;2024-02-28T08:27:43;22.72;;;21.88;;
66371;SDS011;53168;51.146;17.120;2024-02-28T08:31:03;19.28;;;18.54;;
66371;SDS011;53168;51.146;17.120;2024-02-28T08:33:46;24.06;;;23.18;;
66371;SDS011;53168;51.146;17.120;2024-02-28T08:36:28;21.09;;;20.57;;
66371;SDS011;53168;51.146;17.120;2024-02-28T08:39:20;21.21;;;20.35;;
66371;SDS011;53168;51.146;17.120;2024-02-28T08:42:12;21.73;;;21.26;;
66371;SDS011;53168;51.146;17.120;2024-02-28T08:44:44;21.15;;;20.43;;
66371;SDS011;53168;51.146;17.120;2024-02-28T08:47:16;20.84;;;20.18;;
66371;SDS011;53168;51.146;17.120;2024-02-28T08:50:01;20.33;;;19.69;;
66371;SDS011;53168;51.146;17.120;2024-02-28T08:52:32;18.56;;;18.09;;
66371;SDS011;53168;51.146;17.120;2024-02-28T08:55:05;20.32;;;19.65;;
66371;SDS011;53168;51.146;17.120;2024-02-28T08:57:42;19.26;;;18.85;;
66371;SDS011;53168;51.146;17.120;2024-02-28T09:00:14;19.62;;;18.71;;
66371;SDS011;53168;51.146;17.120;2024-02-28T09:02:46;20.02;;;19.06;;
66371;SDS011;53168;51.146;17.120;2024-02-28T09:05:16;19.05;;;18.34;;
66371;SDS011;53168;51.146;17.120;2024-02-28T09:07:47;18.42;;;17.75;;
66371;SDS011;53168;51.146;17.120;2024-02-28T09:10:19;18.22;;;17.43;;
66371;SDS011;53168;51.146;17.120;2024-02-28T09:12:52;16.39;;;15.96;;
66371;SDS011;53168;51.146;17.120;2024-02-28T09:18:01;15.01;;;14.11;;
66371;SDS011;53168;51.146;17.120;2024-02-28T09:20:37;14.24;;;13.87;;
66371;SDS011;53168;51.146;17.120;2024-02-28T09:23:11;13.33;;;13.04;;
66371;SDS011;53168;51.146;17.120;2024-02-28T09:25:46;12.67;;;12.55;;
66371;SDS011;53168;51.146;17.120;2024-02-28T09:28:21;14.40;;;14.26;;
66371;SDS011;53168;51.146;17.120;2024-02-28T09:32:03;11.92;;;11.84;;
66371;SDS011;53168;51.146;17.120;2024-02-28T09:34:39;12.71;;;12.59;;
66371;SDS011;53168;51.146;17.120;2024-02-28T09:37:14;13.42;;;13.15;;
66371;SDS011;53168;51.146;17.120;2024-02-28T09:39:55;12.28;;;12.03;;
66371;SDS011;53168;51.146;17.120;2024-02-28T09:42:57;13.18;;;12.87;;
66371;SDS011;53168;51.146;17.120;2024-02-28T09:45:36;12.94;;;12.67;;
66371;SDS011;53168;51.146;17.120;2024-02-28T09:48:21;12.10;;;11.94;;
66371;SDS011;53168;51.146;17.120;2024-02-28T09:51:03;12.75;;;12.57;;
66371;SDS011;53168;51.146;17.120;2024-02-28T09:53:42;13.02;;;12.80;;
66371;SDS011;53168;51.146;17.120;2024-02-28T09:56:17;12.29;;;11.98;;
66371;SDS011;53168;51.146;17.120;2024-02-28T09:59:02;11.63;;;11.35;;
66371;SDS011;53168;51.146;17.120;2024-02-28T10:01:44;11.74;;;11.56;;
66371;SDS011;53168;51.146;17.120;2024-02-28T10:04:41;9.99;;;9.81;;
66371;SDS011;53168;51.146;17.120;2024-02-28T10:07:29;10.64;;;10.58;;
66371;SDS011;53168;51.146;17.120;2024-02-28T10:10:13;11.04;;;10.93;;
66371;SDS011;53168;51.146;17.120;2024-02-28T10:12:53;10.66;;;10.56;;
66371;SDS011;53168;51.146;17.120;2024-02-28T10:15:32;11.24;;;11.09;;
66371;SDS011;53168;51.146;17.120;2024-02-28T10:18:08;11.51;;;11.38;;
66371;SDS011;53168;51.146;17.120;2024-02-28T10:20:50;9.99;;;9.87;;
66371;SDS011;53168;51.146;17.120;2024-02-28T10:23:30;10.86;;;10.69;;
66371;SDS011;53168;51.146;17.120;2024-02-28T10:26:12;9.82;;;9.72;;
66371;SDS011;53168;51.146;17.120;2024-02-28T10:28:54;11.04;;;10.84;;
66371;SDS011;53168;51.146;17.120;2024-02-28T10:31:42;11.51;;;11.23;;
66371;SDS011;53168;51.146;17.120;2024-02-28T10:34:29;11.98;;;11.76;;
66371;SDS011;53168;51.146;17.120;2024-02-28T10:37:12;12.29;;;12.12;;
66371;SDS011;53168;51.146;17.120;2024-02-28T10:39:51;12.61;;;12.42;;
66371;SDS011;53168;51.146;17.120;2024-02-28T10:42:28;11.38;;;11.16;;
66371;SDS011;53168;51.146;17.120;2024-02-28T10:45:05;11.44;;;11.20;;
66371;SDS011;53168;51.146;17.120;2024-02-28T10:47:59;11.90;;;11.71;;
66371;SDS011;53168;51.146;17.120;2024-02-28T10:50:38;10.80;;;10.58;;
66371;SDS011;53168;51.146;17.120;2024-02-28T10:53:14;10.19;;;10.06;;
66371;SDS011;53168;51.146;17.120;2024-02-28T10:55:54;10.57;;;10.52;;
66371;SDS011;53168;51.146;17.120;2024-02-28T10:58:41;11.17;;;11.13;;
66371;SDS011;53168;51.146;17.120;2024-02-28T11:04:29;12.34;;;11.23;;
66371;SDS011;53168;51.146;17.120;2024-02-28T11:07:05;11.32;;;11.17;;
66371;SDS011;53168;51.146;17.120;2024-02-28T11:09:40;11.62;;;11.38;;
66371;SDS011;53168;51.146;17.120;2024-02-28T11:12:25;10.06;;;9.92;;
66371;SDS011;53168;51.146;17.120;2024-02-28T11:15:02;10.06;;;9.90;;
66371;SDS011;53168;51.146;17.120;2024-02-28T11:17:48;10.10;;;9.98;;
66371;SDS011;53168;51.146;17.120;2024-02-28T11:20:22;11.00;;;10.84;;
66371;SDS011;53168;51.146;17.120;2024-02-28T11:23:07;10.67;;;10.46;;
66371;SDS011;53168;51.146;17.120;2024-02-28T11:25:43;10.41;;;10.34;;
66371;SDS011;53168;51.146;17.120;2024-02-28T11:28:18;10.32;;;10.21;;
66371;SDS011;53168;51.146;17.120;2024-02-28T11:30:54;11.29;;;11.01;;
66371;SDS011;53168;51.146;17.120;2024-02-28T11:33:29;11.04;;;10.89;;
66371;SDS011;53168;51.146;17.120;2024-02-28T11:36:04;10.16;;;10.09;;
66371;SDS011;53168;51.146;17.120;2024-02-28T11:38:42;10.61;;;10.53;;
66371;SDS011;53168;51.146;17.120;2024-02-28T11:41:17;11.35;;;11.19;;
66371;SDS011;53168;51.146;17.120;2024-02-28T11:44:00;11.81;;;11.40;;
66371;SDS011;53168;51.146;17.120;2024-02-28T11:46:35;12.07;;;11.78;;
66371;SDS011;53168;51.146;17.120;2024-02-28T11:49:13;11.66;;;11.41;;
66371;SDS011;53168;51.146;17.120;2024-02-28T11:51:49;11.95;;;11.69;;
66371;SDS011;53168;51.146;17.120;2024-02-28T11:54:23;12.41;;;12.06;;
66371;SDS011;53168;51.146;17.120;2024-02-28T11:56:58;13.28;;;12.91;;
66371;SDS011;53168;51.146;17.120;2024-02-28T11:59:34;11.39;;;11.19;;
66371;SDS011;53168;51.146;17.120;2024-02-28T12:02:14;12.94;;;12.62;;
66371;SDS011;53168;51.146;17.120;2024-02-28T12:04:53;13.65;;;13.31;;
66371;SDS011;53168;51.146;17.120;2024-02-28T12:07:35;11.71;;;11.36;;
66371;SDS011;53168;51.146;17.120;2024-02-28T12:10:15;12.06;;;11.85;;
66371;SDS011;53168;51.146;17.120;2024-02-28T12:12:50;11.63;;;11.46;;
66371;SDS011;53168;51.146;17.120;2024-02-28T12:15:33;12.04;;;11.87;;
66371;SDS011;53168;51.146;17.120;2024-02-28T12:18:11;11.99;;;11.89;;
66371;SDS011;53168;51.146;17.120;2024-02-28T12:20:47;11.97;;;11.84;;
66371;SDS011;53168;51.146;17.120;2024-02-28T12:23:23;11.97;;;11.83;;
66371;SDS011;53168;51.146;17.120;2024-02-28T12:25:58;12.27;;;12.08;;
66371;SDS011;53168;51.146;17.120;2024-02-28T12:28:33;12.64;;;12.41;;
66371;SDS011;53168;51.146;17.120;2024-02-28T12:31:09;11.56;;;11.34;;
66371;SDS011;53168;51.146;17.120;2024-02-28T12:33:45;12.37;;;12.13;;
66371;SDS011;53168;51.146;17.120;2024-02-28T12:36:20;13.39;;;13.15;;
66371;SDS011;53168;51.146;17.120;2024-02-28T12:38:54;13.56;;;13.26;;
66371;SDS011;53168;51.146;17.120;2024-02-28T12:41:32;12.94;;;12.81;;
66371;SDS011;53168;51.146;17.120;2024-02-28T12:44:07;11.87;;;11.69;;
66371;SDS011;53168;51.146;17.120;2024-02-28T12:46:43;13.22;;;12.95;;
66371;SDS011;53168;51.146;17.120;2024-02-28T12:49:17;10.99;;;10.83;;
66371;SDS011;53168;51.146;17.120;2024-02-28T12:51:52;10.90;;;10.81;;
66371;SDS011;53168;51.146;17.120;2024-02-28T12:54:26;10.80;;;10.63;;
66371;SDS011;53168;51.146;17.120;2024-02-28T12:57:02;12.27;;;12.20;;
66371;SDS011;53168;51.146;17.120;2024-02-28T12:59:40;12.23;;;12.10;;
66371;SDS011;53168;51.146;17.120;2024-02-28T13:02:20;12.69;;;12.61;;
66371;SDS011;53168;51.146;17.120;2024-02-28T13:04:55;13.23;;;13.02;;
66371;SDS011;53168;51.146;17.120;2024-02-28T13:07:30;14.01;;;13.80;;
66371;SDS011;53168;51.146;17.120;2024-02-28T13:10:07;13.78;;;13.67;;
66371;SDS011;53168;51.146;17.120;2024-02-28T13:12:42;14.19;;;14.01;;
66371;SDS011;53168;51.146;17.120;2024-02-28T13:15:18;16.01;;;15.72;;
66371;SDS011;53168;51.146;17.120;2024-02-28T13:17:54;14.92;;;14.78;;
66371;SDS011;53168;51.146;17.120;2024-02-28T13:20:36;14.70;;;14.44;;
66371;SDS011;53168;51.146;17.120;2024-02-28T13:23:14;14.45;;;14.39;;
66371;SDS011;53168;51.146;17.120;2024-02-28T13:25:48;15.26;;;15.07;;
66371;SDS011;53168;51.146;17.120;2024-02-28T13:28:23;15.22;;;15.04;;
66371;SDS011;53168;51.146;17.120;2024-02-28T13:30:59;15.11;;;14.91;;
66371;SDS011;53168;51.146;17.120;2024-02-28T13:33:36;15.61;;;15.22;;
66371;SDS011;53168;51.146;17.120;2024-02-28T13:36:12;14.63;;;14.40;;
66371;SDS011;53168;51.146;17.120;2024-02-28T13:38:47;14.76;;;14.41;;
66371;SDS011;53168;51.146;17.120;2024-02-28T13:41:21;16.41;;;15.99;;
66371;SDS011;53168;51.146;17.120;2024-02-28T13:43:56;17.98;;;17.52;;
66371;SDS011;53168;51.146;17.120;2024-02-28T13:46:30;18.42;;;18.07;;
66371;SDS011;53168;51.146;17.120;2024-02-28T13:49:05;16.42;;;16.14;;
66371;SDS011;53168;51.146;17.120;2024-02-28T13:51:41;16.55;;;16.11;;
66371;SDS011;53168;51.146;17.120;2024-02-28T13:54:26;16.36;;;15.87;;
66371;SDS011;53168;51.146;17.120;2024-02-28T13:57:02;17.03;;;16.43;;
66371;SDS011;53168;51.146;17.120;2024-02-28T14:02:59;17.01;;;16.48;;
66371;SDS011;53168;51.146;17.120;2024-02-28T14:05:34;17.23;;;16.85;;
66371;SDS011;53168;51.146;17.120;2024-02-28T14:08:09;20.74;;;20.16;;
66371;SDS011;53168;51.146;17.120;2024-02-28T14:10:44;19.52;;;19.00;;
66371;SDS011;53168;51.146;17.120;2024-02-28T14:13:19;19.99;;;19.47;;
66371;SDS011;53168;51.146;17.120;2024-02-28T14:15:53;21.13;;;20.72;;
66371;SDS011;53168;51.146;17.120;2024-02-28T14:18:28;19.17;;;18.61;;
66371;SDS011;53168;51.146;17.120;2024-02-28T14:21:05;18.33;;;17.79;;
66371;SDS011;53168;51.146;17.120;2024-02-28T14:23:40;18.35;;;17.63;;
66371;SDS011;53168;51.146;17.120;2024-02-28T14:26:14;20.01;;;19.04;;
66371;SDS011;53168;51.146;17.120;2024-02-28T14:28:49;22.67;;;21.89;;
66371;SDS011;53168;51.146;17.120;2024-02-28T14:31:24;18.67;;;18.09;;
66371;SDS011;53168;51.146;17.120;2024-02-28T14:33:59;19.02;;;18.35;;
66371;SDS011;53168;51.146;17.120;2024-02-28T14:36:39;17.02;;;16.49;;
66371;SDS011;53168;51.146;17.120;2024-02-28T14:39:14;18.66;;;17.68;;
66371;SDS011;53168;51.146;17.120;2024-02-28T14:41:49;18.92;;;17.76;;
66371;SDS011;53168;51.146;17.120;2024-02-28T14:44:24;17.32;;;16.45;;
66371;SDS011;53168;51.146;17.120;2024-02-28T14:46:59;15.38;;;14.65;;
66371;SDS011;53168;51.146;17.120;2024-02-28T14:49:34;16.79;;;15.70;;
66371;SDS011;53168;51.146;17.120;2024-02-28T14:52:09;17.46;;;16.60;;
66371;SDS011;53168;51.146;17.120;2024-02-28T14:54:44;19.90;;;19.50;;
66371;SDS011;53168;51.146;17.120;2024-02-28T14:57:18;19.76;;;19.29;;
66371;SDS011;53168;51.146;17.120;2024-02-28T14:59:53;19.68;;;19.31;;
66371;SDS011;53168;51.146;17.120;2024-02-28T15:02:28;17.24;;;16.79;;
66371;SDS011;53168;51.146;17.120;2024-02-28T15:05:03;16.66;;;15.74;;
66371;SDS011;53168;51.146;17.120;2024-02-28T15:07:40;16.03;;;15.08;;
66371;SDS011;53168;51.146;17.120;2024-02-28T15:10:15;15.74;;;14.97;;
66371;SDS011;53168;51.146;17.120;2024-02-28T15:12:50;15.60;;;15.10;;
66371;SDS011;53168;51.146;17.120;2024-02-28T15:15:24;14.56;;;13.92;;
66371;SDS011;53168;51.146;17.120;2024-02-28T15:17:59;16.48;;;15.59;;
66371;SDS011;53168;51.146;17.120;2024-02-28T15:20:34;18.61;;;17.39;;
66371;SDS011;53168;51.146;17.120;2024-02-28T15:23:10;15.96;;;14.86;;
66371;SDS011;53168;51.146;17.120;2024-02-28T15:25:45;16.60;;;15.61;;
66371;SDS011;53168;51.146;17.120;2024-02-28T15:28:23;14.56;;;13.70;;
66371;SDS011;53168;51.146;17.120;2024-02-28T15:31:00;20.70;;;20.06;;
66371;SDS011;53168;51.146;17.120;2024-02-28T15:33:43;20.11;;;19.29;;
66371;SDS011;53168;51.146;17.120;2024-02-28T15:36:42;19.98;;;19.26;;
66371;SDS011;53168;51.146;17.120;2024-02-28T15:39:18;18.61;;;17.90;;
66371;SDS011;53168;51.146;17.120;2024-02-28T15:41:53;13.86;;;13.40;;
66371;SDS011;53168;51.146;17.120;2024-02-28T15:44:32;14.25;;;13.53;;
66371;SDS011;53168;51.146;17.120;2024-02-28T15:47:09;15.43;;;14.83;;
66371;SDS011;53168;51.146;17.120;2024-02-28T15:49:44;14.29;;;13.68;;
66371;SDS011;53168;51.146;17.120;2024-02-28T15:52:18;14.81;;;14.36;;
66371;SDS011;53168;51.146;17.120;2024-02-28T15:54:53;15.38;;;14.84;;
66371;SDS011;53168;51.146;17.120;2024-02-28T15:57:28;16.75;;;16.11;;